sensor_id;sensor_type;location;lat;lon;timestamp;pressure;altitude;pressure_sealevel;temperature;humidity
25238;BME280;13185;50.872;5.306;2022-10-22T00:01:36;100592.25;;;12.68;100.00
25238;BME280;13185;50.872;5.306;2022-10-22T00:04:04;100597.88;;;12.65;100.00
25238;BME280;13185;50.872;5.306;2022-10-22T00:06:29;100598.84;;;12.64;100.00
25238;BME280;13185;50.872;5.306;2022-10-22T00:08:54;100597.28;;;12.61;100.00
25238;BME280;13185;50.872;5.306;2022-10-22T00:11:20;100592.84;;;12.60;100.00
25238;BME280;13185;50.872;5.306;2022-10-22T00:13:46;100606.53;;;12.57;100.00
25238;BME280;13185;50.872;5.306;2022-10-22T00:16:12;100604.69;;;12.58;100.00
25238;BME280;13185;50.872;5.306;2022-10-22T00:18:38;100609.22;;;12.57;100.00
25238;BME280;13185;50.872;5.306;2022-10-22T00:21:04;100603.13;;;12.55;100.00
25238;BME280;13185;50.872;5.306;2022-10-22T00:23:30;100595.16;;;12.54;100.00
25238;BME280;13185;50.872;5.306;2022-10-22T00:25:56;100594.31;;;12.53;100.00
25238;BME280;13185;50.872;5.306;2022-10-22T00:28:22;100587.09;;;12.54;100.00
25238;BME280;13185;50.872;5.306;2022-10-22T00:30:47;100587.94;;;12.54;100.00
25238;BME280;13185;50.872;5.306;2022-10-22T00:33:13;100596.03;;;12.54;100.00
25238;BME280;13185;50.872;5.306;2022-10-22T00:35:38;100597.00;;;12.53;100.00
25238;BME280;13185;50.872;5.306;2022-10-22T00:38:04;100600.66;;;12.52;100.00
25238;BME280;13185;50.872;5.306;2022-10-22T00:40:29;100588.06;;;12.53;100.00
25238;BME280;13185;50.872;5.306;2022-10-22T00:42:55;100591.63;;;12.53;100.00
25238;BME280;13185;50.872;5.306;2022-10-22T00:45:23;100591.25;;;12.58;100.00
25238;BME280;13185;50.872;5.306;2022-10-22T00:47:54;100591.91;;;12.61;100.00
25238;BME280;13185;50.872;5.306;2022-10-22T00:50:51;100599.72;;;12.64;100.00
25238;BME280;13185;50.872;5.306;2022-10-22T00:53:20;100586.88;;;12.79;100.00
25238;BME280;13185;50.872;5.306;2022-10-22T00:55:48;100591.56;;;12.88;100.00
25238;BME280;13185;50.872;5.306;2022-10-22T00:58:16;100587.66;;;12.92;100.00
25238;BME280;13185;50.872;5.306;2022-10-22T01:00:43;100585.31;;;12.99;100.00
25238;BME280;13185;50.872;5.306;2022-10-22T01:03:08;100591.69;;;13.09;100.00
25238;BME280;13185;50.872;5.306;2022-10-22T01:05:41;100587.53;;;13.16;100.00
25238;BME280;13185;50.872;5.306;2022-10-22T01:08:10;100594.19;;;13.23;100.00
25238;BME280;13185;50.872;5.306;2022-10-22T01:13:40;100602.88;;;13.27;100.00
25238;BME280;13185;50.872;5.306;2022-10-22T01:16:15;100604.59;;;13.28;100.00
25238;BME280;13185;50.872;5.306;2022-10-22T01:18:48;100610.69;;;13.30;100.00
25238;BME280;13185;50.872;5.306;2022-10-22T01:21:23;100604.34;;;13.31;100.00
25238;BME280;13185;50.872;5.306;2022-10-22T01:26:51;100587.19;;;13.32;100.00
25238;BME280;13185;50.872;5.306;2022-10-22T01:29:18;100593.69;;;13.29;100.00
25238;BME280;13185;50.872;5.306;2022-10-22T01:31:52;100590.25;;;13.27;100.00
25238;BME280;13185;50.872;5.306;2022-10-22T01:34:21;100596.50;;;13.28;100.00
25238;BME280;13185;50.872;5.306;2022-10-22T01:36:48;100601.91;;;13.28;100.00
25238;BME280;13185;50.872;5.306;2022-10-22T01:39:16;100597.63;;;13.25;100.00
25238;BME280;13185;50.872;5.306;2022-10-22T01:41:43;100595.91;;;13.24;100.00
25238;BME280;13185;50.872;5.306;2022-10-22T01:44:30;100600.44;;;13.24;100.00
25238;BME280;13185;50.872;5.306;2022-10-22T01:47:31;100603.13;;;13.24;100.00
25238;BME280;13185;50.872;5.306;2022-10-22T01:50:31;100601.16;;;13.26;100.00
25238;BME280;13185;50.872;5.306;2022-10-22T01:55:55;100604.72;;;13.26;100.00
25238;BME280;13185;50.872;5.306;2022-10-22T02:01:38;100606.56;;;13.26;100.00
25238;BME280;13185;50.872;5.306;2022-10-22T02:04:17;100601.16;;;13.26;100.00
25238;BME280;13185;50.872;5.306;2022-10-22T02:06:45;100596.50;;;13.28;100.00
25238;BME280;13185;50.872;5.306;2022-10-22T02:09:14;100599.19;;;13.28;100.00
25238;BME280;13185;50.872;5.306;2022-10-22T02:11:43;100593.81;;;13.28;100.00
25238;BME280;13185;50.872;5.306;2022-10-22T02:14:10;100595.66;;;13.27;100.00
25238;BME280;13185;50.872;5.306;2022-10-22T02:16:39;100596.75;;;13.25;100.00
25238;BME280;13185;50.872;5.306;2022-10-22T02:19:13;100599.31;;;13.26;100.00
25238;BME280;13185;50.872;5.306;2022-10-22T02:21:40;100596.63;;;13.26;100.00
25238;BME280;13185;50.872;5.306;2022-10-22T02:24:06;100598.34;;;13.27;100.00
25238;BME280;13185;50.872;5.306;2022-10-22T02:26:37;100604.84;;;13.25;100.00
25238;BME280;13185;50.872;5.306;2022-10-22T02:29:28;100613.91;;;13.24;100.00
25238;BME280;13185;50.872;5.306;2022-10-22T02:31:55;100622.06;;;13.22;100.00
25238;BME280;13185;50.872;5.306;2022-10-22T02:34:26;100621.22;;;13.22;100.00
25238;BME280;13185;50.872;5.306;2022-10-22T02:36:54;100628.56;;;13.20;100.00
25238;BME280;13185;50.872;5.306;2022-10-22T02:39:21;100630.50;;;13.18;100.00
25238;BME280;13185;50.872;5.306;2022-10-22T02:41:47;100622.53;;;13.16;100.00
25238;BME280;13185;50.872;5.306;2022-10-22T02:44:13;100626.44;;;13.12;100.00
25238;BME280;13185;50.872;5.306;2022-10-22T02:46:39;100625.09;;;13.07;100.00
25238;BME280;13185;50.872;5.306;2022-10-22T02:49:06;100626.09;;;13.06;100.00
25238;BME280;13185;50.872;5.306;2022-10-22T02:51:32;100629.03;;;13.03;100.00
25238;BME280;13185;50.872;5.306;2022-10-22T02:53:57;100641.72;;;13.00;100.00
25238;BME280;13185;50.872;5.306;2022-10-22T02:56:23;100636.59;;;12.97;100.00
25238;BME280;13185;50.872;5.306;2022-10-22T02:58:48;100635.88;;;12.95;100.00
25238;BME280;13185;50.872;5.306;2022-10-22T03:01:14;100638.56;;;12.95;100.00
25238;BME280;13185;50.872;5.306;2022-10-22T03:03:39;100632.53;;;12.92;100.00
25238;BME280;13185;50.872;5.306;2022-10-22T03:06:05;100636.44;;;12.88;100.00
25238;BME280;13185;50.872;5.306;2022-10-22T03:08:30;100635.84;;;12.84;100.00
25238;BME280;13185;50.872;5.306;2022-10-22T03:10:56;100645.97;;;12.81;100.00
25238;BME280;13185;50.872;5.306;2022-10-22T03:13:21;100648.78;;;12.79;100.00
25238;BME280;13185;50.872;5.306;2022-10-22T03:15:48;100651.00;;;12.74;100.00
25238;BME280;13185;50.872;5.306;2022-10-22T03:18:14;100651.09;;;12.73;100.00
25238;BME280;13185;50.872;5.306;2022-10-22T03:20:40;100655.84;;;12.69;100.00
25238;BME280;13185;50.872;5.306;2022-10-22T03:23:05;100662.34;;;12.66;100.00
25238;BME280;13185;50.872;5.306;2022-10-22T03:25:31;100656.22;;;12.64;100.00
25238;BME280;13185;50.872;5.306;2022-10-22T03:28:04;100660.75;;;12.64;100.00
25238;BME280;13185;50.872;5.306;2022-10-22T03:30:31;100656.47;;;12.61;100.00
25238;BME280;13185;50.872;5.306;2022-10-22T03:32:56;100661.94;;;12.60;100.00
25238;BME280;13185;50.872;5.306;2022-10-22T03:35:22;100661.06;;;12.59;100.00
25238;BME280;13185;50.872;5.306;2022-10-22T03:37:48;100661.19;;;12.58;100.00
25238;BME280;13185;50.872;5.306;2022-10-22T03:40:14;100669.38;;;12.56;100.00
25238;BME280;13185;50.872;5.306;2022-10-22T03:42:40;100667.69;;;12.55;100.00
25238;BME280;13185;50.872;5.306;2022-10-22T03:45:07;100667.69;;;12.55;100.00
25238;BME280;13185;50.872;5.306;2022-10-22T03:47:32;100675.88;;;12.54;100.00
25238;BME280;13185;50.872;5.306;2022-10-22T03:49:58;100676.09;;;12.51;100.00
25238;BME280;13185;50.872;5.306;2022-10-22T03:52:24;100680.59;;;12.50;100.00
25238;BME280;13185;50.872;5.306;2022-10-22T03:54:49;100690.50;;;12.50;100.00
25238;BME280;13185;50.872;5.306;2022-10-22T03:57:15;100689.88;;;12.46;100.00
25238;BME280;13185;50.872;5.306;2022-10-22T03:59:42;100706.03;;;12.46;100.00
25238;BME280;13185;50.872;5.306;2022-10-22T04:02:09;100700.41;;;12.49;100.00
25238;BME280;13185;50.872;5.306;2022-10-22T04:04:35;100696.75;;;12.50;100.00
25238;BME280;13185;50.872;5.306;2022-10-22T04:07:01;100706.63;;;12.50;100.00
25238;BME280;13185;50.872;5.306;2022-10-22T04:09:30;100711.16;;;12.49;100.00
25238;BME280;13185;50.872;5.306;2022-10-22T04:11:56;100711.28;;;12.48;100.00
25238;BME280;13185;50.872;5.306;2022-10-22T04:14:21;100705.91;;;12.48;100.00
25238;BME280;13185;50.872;5.306;2022-10-22T04:16:47;100704.81;;;12.50;100.00
25238;BME280;13185;50.872;5.306;2022-10-22T04:19:12;100697.63;;;12.51;100.00
25238;BME280;13185;50.872;5.306;2022-10-22T04:21:38;100696.41;;;12.55;100.00
25238;BME280;13185;50.872;5.306;2022-10-22T04:24:03;100709.63;;;12.58;100.00
25238;BME280;13185;50.872;5.306;2022-10-22T04:26:29;100698.53;;;12.62;100.00
25238;BME280;13185;50.872;5.306;2022-10-22T04:28:54;100700.00;;;12.66;100.00
25238;BME280;13185;50.872;5.306;2022-10-22T04:31:22;100704.28;;;12.69;100.00
25238;BME280;13185;50.872;5.306;2022-10-22T04:33:52;100699.88;;;12.68;100.00
25238;BME280;13185;50.872;5.306;2022-10-22T04:36:18;100702.56;;;12.68;100.00
25238;BME280;13185;50.872;5.306;2022-10-22T04:38:45;100711.38;;;12.70;100.00
25238;BME280;13185;50.872;5.306;2022-10-22T04:41:15;100712.03;;;12.74;100.00
25238;BME280;13185;50.872;5.306;2022-10-22T04:43:42;100710.91;;;12.76;100.00
25238;BME280;13185;50.872;5.306;2022-10-22T04:46:09;100714.34;;;12.78;100.00
25238;BME280;13185;50.872;5.306;2022-10-22T04:48:36;100720.34;;;12.82;100.00
25238;BME280;13185;50.872;5.306;2022-10-22T04:51:03;100723.81;;;12.84;100.00
25238;BME280;13185;50.872;5.306;2022-10-22T04:53:29;100719.16;;;12.86;100.00
25238;BME280;13185;50.872;5.306;2022-10-22T04:55:54;100728.81;;;12.88;100.00
25238;BME280;13185;50.872;5.306;2022-10-22T04:58:19;100732.25;;;12.90;100.00
25238;BME280;13185;50.872;5.306;2022-10-22T05:00:45;100724.94;;;12.92;100.00
25238;BME280;13185;50.872;5.306;2022-10-22T05:03:10;100725.66;;;12.94;100.00
25238;BME280;13185;50.872;5.306;2022-10-22T05:05:36;100731.66;;;12.98;100.00
25238;BME280;13185;50.872;5.306;2022-10-22T05:08:01;100723.59;;;12.98;100.00
25238;BME280;13185;50.872;5.306;2022-10-22T05:10:27;100717.09;;;13.00;100.00
25238;BME280;13185;50.872;5.306;2022-10-22T05:12:52;100731.34;;;13.03;100.00
25238;BME280;13185;50.872;5.306;2022-10-22T05:15:18;100734.75;;;13.05;100.00
25238;BME280;13185;50.872;5.306;2022-10-22T05:17:43;100724.00;;;13.05;100.00
25238;BME280;13185;50.872;5.306;2022-10-22T05:20:09;100735.50;;;13.07;100.00
25238;BME280;13185;50.872;5.306;2022-10-22T05:22:35;100737.19;;;13.08;100.00
25238;BME280;13185;50.872;5.306;2022-10-22T05:25:00;100743.56;;;13.07;100.00
25238;BME280;13185;50.872;5.306;2022-10-22T05:27:26;100738.31;;;13.05;100.00
25238;BME280;13185;50.872;5.306;2022-10-22T05:29:51;100743.69;;;13.05;100.00
25238;BME280;13185;50.872;5.306;2022-10-22T05:32:17;100746.38;;;13.05;100.00
25238;BME280;13185;50.872;5.306;2022-10-22T05:34:42;100748.34;;;13.03;100.00
25238;BME280;13185;50.872;5.306;2022-10-22T05:37:07;100750.19;;;13.03;100.00
25238;BME280;13185;50.872;5.306;2022-10-22T05:39:33;100753.81;;;13.01;100.00
25238;BME280;13185;50.872;5.306;2022-10-22T05:42:02;100754.91;;;12.99;100.00
25238;BME280;13185;50.872;5.306;2022-10-22T05:44:27;100755.03;;;12.97;100.00
25238;BME280;13185;50.872;5.306;2022-10-22T05:46:53;100755.03;;;12.97;100.00
25238;BME280;13185;50.872;5.306;2022-10-22T05:49:18;100754.31;;;12.95;100.00
25238;BME280;13185;50.872;5.306;2022-10-22T05:51:44;100756.25;;;12.93;100.00
25238;BME280;13185;50.872;5.306;2022-10-22T05:54:19;100762.63;;;12.92;100.00
25238;BME280;13185;50.872;5.306;2022-10-22T05:56:46;100757.31;;;12.91;100.00
25238;BME280;13185;50.872;5.306;2022-10-22T05:59:12;100757.44;;;12.89;100.00
25238;BME280;13185;50.872;5.306;2022-10-22T06:01:38;100760.25;;;12.88;100.00
25238;BME280;13185;50.872;5.306;2022-10-22T06:04:06;100771.16;;;12.86;100.00
25238;BME280;13185;50.872;5.306;2022-10-22T06:06:34;100777.50;;;12.85;100.00
25238;BME280;13185;50.872;5.306;2022-10-22T06:09:05;100777.75;;;12.82;100.00
25238;BME280;13185;50.872;5.306;2022-10-22T06:11:32;100789.47;;;12.81;100.00
25238;BME280;13185;50.872;5.306;2022-10-22T06:13:57;100789.47;;;12.81;100.00
25238;BME280;13185;50.872;5.306;2022-10-22T06:16:23;100795.69;;;12.82;100.00
25238;BME280;13185;50.872;5.306;2022-10-22T06:18:48;100792.16;;;12.81;100.00
25238;BME280;13185;50.872;5.306;2022-10-22T06:21:15;100796.69;;;12.81;100.00
25238;BME280;13185;50.872;5.306;2022-10-22T06:23:42;100801.84;;;12.84;100.00
25238;BME280;13185;50.872;5.306;2022-10-22T06:26:08;100801.72;;;12.85;100.00
25238;BME280;13185;50.872;5.306;2022-10-22T06:28:34;100800.00;;;12.84;100.00
25238;BME280;13185;50.872;5.306;2022-10-22T06:31:01;100794.63;;;12.84;100.00
25238;BME280;13185;50.872;5.306;2022-10-22T06:33:27;100804.41;;;12.85;100.00
25238;BME280;13185;50.872;5.306;2022-10-22T06:35:53;100809.91;;;12.84;100.00
25238;BME280;13185;50.872;5.306;2022-10-22T06:38:19;100802.91;;;12.81;100.00
25238;BME280;13185;50.872;5.306;2022-10-22T06:40:45;100811.84;;;12.82;100.00
25238;BME280;13185;50.872;5.306;2022-10-22T06:43:11;100824.25;;;12.84;100.00
25238;BME280;13185;50.872;5.306;2022-10-22T06:45:37;100831.47;;;12.84;100.00
25238;BME280;13185;50.872;5.306;2022-10-22T06:48:03;100841.97;;;12.87;100.00
25238;BME280;13185;50.872;5.306;2022-10-22T06:50:28;100846.38;;;12.88;100.00
25238;BME280;13185;50.872;5.306;2022-10-22T06:52:54;100842.72;;;12.89;100.00
25238;BME280;13185;50.872;5.306;2022-10-22T06:55:19;100848.84;;;12.91;100.00
25238;BME280;13185;50.872;5.306;2022-10-22T06:57:44;100847.78;;;12.93;100.00
25238;BME280;13185;50.872;5.306;2022-10-22T07:00:10;100846.31;;;13.00;100.00
25238;BME280;13185;50.872;5.306;2022-10-22T07:02:36;100850.41;;;13.06;100.00
25238;BME280;13185;50.872;5.306;2022-10-22T07:05:02;100859.75;;;13.13;100.00
25238;BME280;13185;50.872;5.306;2022-10-22T07:07:27;100865.75;;;13.17;100.00
25238;BME280;13185;50.872;5.306;2022-10-22T07:09:53;100863.59;;;13.22;100.00
25238;BME280;13185;50.872;5.306;2022-10-22T07:12:18;100868.88;;;13.23;100.00
25238;BME280;13185;50.872;5.306;2022-10-22T07:14:43;100873.06;;;13.27;100.00
25238;BME280;13185;50.872;5.306;2022-10-22T07:17:09;100885.41;;;13.30;100.00
25238;BME280;13185;50.872;5.306;2022-10-22T07:19:34;100877.94;;;13.34;100.00
25238;BME280;13185;50.872;5.306;2022-10-22T07:22:00;100887.28;;;13.41;100.00
25238;BME280;13185;50.872;5.306;2022-10-22T07:24:25;100887.06;;;13.44;100.00
25238;BME280;13185;50.872;5.306;2022-10-22T07:26:51;100895.53;;;13.50;100.00
25238;BME280;13185;50.872;5.306;2022-10-22T07:29:16;100892.13;;;13.60;100.00
25238;BME280;13185;50.872;5.306;2022-10-22T07:31:42;100896.31;;;13.64;100.00
25238;BME280;13185;50.872;5.306;2022-10-22T07:34:08;100894.25;;;13.67;100.00
25238;BME280;13185;50.872;5.306;2022-10-22T07:36:34;100896.81;;;13.69;100.00
25238;BME280;13185;50.872;5.306;2022-10-22T07:39:00;100900.13;;;13.72;100.00
25238;BME280;13185;50.872;5.306;2022-10-22T07:41:27;100914.47;;;13.73;100.00
25238;BME280;13185;50.872;5.306;2022-10-22T07:43:54;100919.84;;;13.73;100.00
25238;BME280;13185;50.872;5.306;2022-10-22T07:46:20;100915.19;;;13.75;100.00
25238;BME280;13185;50.872;5.306;2022-10-22T07:48:46;100920.13;;;13.81;100.00
25238;BME280;13185;50.872;5.306;2022-10-22T07:51:11;100923.44;;;13.84;100.00
25238;BME280;13185;50.872;5.306;2022-10-22T07:53:37;100923.22;;;13.88;100.00
25238;BME280;13185;50.872;5.306;2022-10-22T07:56:03;100938.91;;;13.94;100.00
25238;BME280;13185;50.872;5.306;2022-10-22T07:58:29;100936.94;;;13.96;100.00
25238;BME280;13185;50.872;5.306;2022-10-22T08:00:56;100939.41;;;13.99;100.00
25238;BME280;13185;50.872;5.306;2022-10-22T08:03:22;100941.00;;;14.01;100.00
25238;BME280;13185;50.872;5.306;2022-10-22T08:05:47;100951.56;;;14.04;100.00
25238;BME280;13185;50.872;5.306;2022-10-22T08:08:14;100949.72;;;14.05;100.00
25238;BME280;13185;50.872;5.306;2022-10-22T08:10:41;100961.25;;;14.07;100.00
25238;BME280;13185;50.872;5.306;2022-10-22T08:13:07;100956.47;;;14.10;100.00
25238;BME280;13185;50.872;5.306;2022-10-22T08:15:32;100963.34;;;14.14;100.00
25238;BME280;13185;50.872;5.306;2022-10-22T08:17:58;100964.94;;;14.17;100.00
25238;BME280;13185;50.872;5.306;2022-10-22T08:20:23;100970.84;;;14.22;100.00
25238;BME280;13185;50.872;5.306;2022-10-22T08:22:49;100974.03;;;14.27;100.00
25238;BME280;13185;50.872;5.306;2022-10-22T08:25:15;100975.66;;;14.30;100.00
25238;BME280;13185;50.872;5.306;2022-10-22T08:27:42;100978.09;;;14.33;100.00
25238;BME280;13185;50.872;5.306;2022-10-22T08:30:08;100974.16;;;14.37;100.00
25238;BME280;13185;50.872;5.306;2022-10-22T08:32:34;100981.69;;;14.44;100.00
25238;BME280;13185;50.872;5.306;2022-10-22T08:34:59;100984.13;;;14.48;100.00
25238;BME280;13185;50.872;5.306;2022-10-22T08:37:25;100983.06;;;14.50;100.00
25238;BME280;13185;50.872;5.306;2022-10-22T08:39:50;100980.97;;;14.54;100.00
25238;BME280;13185;50.872;5.306;2022-10-22T08:48:24;100992.03;;;14.73;100.00
25238;BME280;13185;50.872;5.306;2022-10-22T08:50:56;101004.06;;;14.80;100.00
25238;BME280;13185;50.872;5.306;2022-10-22T08:53:33;101004.28;;;14.88;100.00
25238;BME280;13185;50.872;5.306;2022-10-22T08:56:02;101013.13;;;14.90;100.00
25238;BME280;13185;50.872;5.306;2022-10-22T09:01:41;101003.91;;;15.04;100.00
25238;BME280;13185;50.872;5.306;2022-10-22T09:04:17;101017.03;;;15.09;100.00
25238;BME280;13185;50.872;5.306;2022-10-22T09:06:51;101024.91;;;15.12;100.00
25238;BME280;13185;50.872;5.306;2022-10-22T09:09:18;101020.69;;;15.19;100.00
25238;BME280;13185;50.872;5.306;2022-10-22T09:11:49;101030.16;;;15.24;100.00
25238;BME280;13185;50.872;5.306;2022-10-22T09:14:18;101029.91;;;15.27;100.00
25238;BME280;13185;50.872;5.306;2022-10-22T09:22:25;101035.88;;;15.42;100.00
25238;BME280;13185;50.872;5.306;2022-10-22T09:25:15;101039.81;;;15.49;100.00
25238;BME280;13185;50.872;5.306;2022-10-22T09:27:42;101028.72;;;15.52;100.00
25238;BME280;13185;50.872;5.306;2022-10-22T09:30:17;101035.97;;;15.52;100.00
25238;BME280;13185;50.872;5.306;2022-10-22T09:32:43;101029.34;;;15.56;100.00
25238;BME280;13185;50.872;5.306;2022-10-22T09:35:10;101038.72;;;15.63;100.00
25238;BME280;13185;50.872;5.306;2022-10-22T09:37:46;101040.63;;;15.72;100.00
25238;BME280;13185;50.872;5.306;2022-10-22T09:40:12;101044.09;;;15.74;100.00
25238;BME280;13185;50.872;5.306;2022-10-22T09:42:39;101051.53;;;15.82;100.00
25238;BME280;13185;50.872;5.306;2022-10-22T09:45:05;101044.63;;;15.89;100.00
25238;BME280;13185;50.872;5.306;2022-10-22T09:52:38;101060.69;;;16.02;100.00
25238;BME280;13185;50.872;5.306;2022-10-22T09:55:15;101058.47;;;16.07;100.00
25238;BME280;13185;50.872;5.306;2022-10-22T09:57:41;101070.22;;;16.17;100.00
25238;BME280;13185;50.872;5.306;2022-10-22T10:00:09;101065.88;;;16.26;100.00
25238;BME280;13185;50.872;5.306;2022-10-22T10:02:39;101071.47;;;16.34;99.63
25238;BME280;13185;50.872;5.306;2022-10-22T10:05:06;101079.22;;;16.38;99.01
25238;BME280;13185;50.872;5.306;2022-10-22T10:07:34;101086.94;;;16.43;98.12
25238;BME280;13185;50.872;5.306;2022-10-22T10:10:00;101095.03;;;16.43;96.48
25238;BME280;13185;50.872;5.306;2022-10-22T10:15:27;101103.50;;;16.50;97.12
25238;BME280;13185;50.872;5.306;2022-10-22T10:18:16;101105.56;;;16.57;96.30
25238;BME280;13185;50.872;5.306;2022-10-22T10:37:41;101112.03;;;16.87;92.29
25238;BME280;13185;50.872;5.306;2022-10-22T10:40:23;101122.75;;;16.88;91.18
25238;BME280;13185;50.872;5.306;2022-10-22T10:42:58;101127.63;;;16.94;90.86
25238;BME280;13185;50.872;5.306;2022-10-22T10:45:45;101116.97;;;17.02;90.56
25238;BME280;13185;50.872;5.306;2022-10-22T10:51:18;101134.16;;;17.13;89.92
25238;BME280;13185;50.872;5.306;2022-10-22T10:56:47;101120.56;;;17.03;88.88
25238;BME280;13185;50.872;5.306;2022-10-22T11:07:18;101105.91;;;17.15;89.12
25238;BME280;13185;50.872;5.306;2022-10-22T11:10:08;101108.75;;;17.14;88.66
25238;BME280;13185;50.872;5.306;2022-10-22T11:12:38;101102.78;;;17.10;88.02
25238;BME280;13185;50.872;5.306;2022-10-22T11:17:41;101099.78;;;17.13;89.33
25238;BME280;13185;50.872;5.306;2022-10-22T11:20:13;101096.50;;;17.19;88.98
25238;BME280;13185;50.872;5.306;2022-10-22T11:22:46;101091.41;;;17.26;89.13
25238;BME280;13185;50.872;5.306;2022-10-22T11:25:15;101097.72;;;17.36;88.30
25238;BME280;13185;50.872;5.306;2022-10-22T11:27:55;101100.19;;;17.49;87.66
25238;BME280;13185;50.872;5.306;2022-10-22T11:30:23;101100.66;;;17.64;88.43
25238;BME280;13185;50.872;5.306;2022-10-22T11:32:59;101086.81;;;17.67;85.86
25238;BME280;13185;50.872;5.306;2022-10-22T11:35:45;101092.75;;;17.72;85.23
25238;BME280;13185;50.872;5.306;2022-10-22T11:38:17;101084.16;;;17.76;83.39
25238;BME280;13185;50.872;5.306;2022-10-22T11:41:01;101081.00;;;17.81;83.99
25238;BME280;13185;50.872;5.306;2022-10-22T11:44:09;101085.16;;;17.75;83.25
25238;BME280;13185;50.872;5.306;2022-10-22T11:46:44;101087.69;;;17.67;83.72
25238;BME280;13185;50.872;5.306;2022-10-22T11:51:40;101085.09;;;17.56;83.82
25238;BME280;13185;50.872;5.306;2022-10-22T11:54:39;101087.94;;;17.54;85.16
25238;BME280;13185;50.872;5.306;2022-10-22T11:59:51;101099.44;;;17.77;84.85
25238;BME280;13185;50.872;5.306;2022-10-22T12:05:18;101095.56;;;17.70;83.69
25238;BME280;13185;50.872;5.306;2022-10-22T12:08:00;101094.00;;;17.77;84.34
25238;BME280;13185;50.872;5.306;2022-10-22T12:10:33;101086.75;;;17.87;83.96
25238;BME280;13185;50.872;5.306;2022-10-22T12:13:24;101095.63;;;17.99;84.57
25238;BME280;13185;50.872;5.306;2022-10-22T12:15:53;101099.47;;;18.06;83.66
25238;BME280;13185;50.872;5.306;2022-10-22T12:18:24;101083.06;;;18.17;81.29
25238;BME280;13185;50.872;5.306;2022-10-22T12:20:52;101097.50;;;18.28;80.88
25238;BME280;13185;50.872;5.306;2022-10-22T12:23:20;101086.34;;;18.21;79.67
25238;BME280;13185;50.872;5.306;2022-10-22T12:25:48;101097.34;;;18.20;79.97
25238;BME280;13185;50.872;5.306;2022-10-22T12:28:14;101094.63;;;18.20;80.43
25238;BME280;13185;50.872;5.306;2022-10-22T12:30:40;101092.63;;;18.12;79.84
25238;BME280;13185;50.872;5.306;2022-10-22T12:33:17;101101.34;;;18.15;80.41
25238;BME280;13185;50.872;5.306;2022-10-22T12:35:44;101094.19;;;18.05;80.13
25238;BME280;13185;50.872;5.306;2022-10-22T12:38:16;101085.63;;;18.09;79.53
25238;BME280;13185;50.872;5.306;2022-10-22T12:40:42;101094.31;;;18.13;80.00
25238;BME280;13185;50.872;5.306;2022-10-22T12:43:19;101081.75;;;18.22;81.13
25238;BME280;13185;50.872;5.306;2022-10-22T12:45:49;101091.34;;;18.35;80.58
25238;BME280;13185;50.872;5.306;2022-10-22T12:48:18;101085.88;;;18.55;79.24
25238;BME280;13185;50.872;5.306;2022-10-22T12:50:49;101088.16;;;18.59;78.12
25238;BME280;13185;50.872;5.306;2022-10-22T12:53:22;101095.88;;;18.64;78.01
25238;BME280;13185;50.872;5.306;2022-10-22T12:55:51;101089.03;;;18.69;77.18
25238;BME280;13185;50.872;5.306;2022-10-22T12:58:21;101089.72;;;18.81;77.73
25238;BME280;13185;50.872;5.306;2022-10-22T13:00:53;101076.56;;;18.86;75.89
25238;BME280;13185;50.872;5.306;2022-10-22T13:03:31;101079.28;;;18.86;75.85
25238;BME280;13185;50.872;5.306;2022-10-22T13:08:42;101065.97;;;18.83;73.96
25238;BME280;13185;50.872;5.306;2022-10-22T13:11:09;101062.81;;;18.88;74.39
25238;BME280;13185;50.872;5.306;2022-10-22T13:16:21;101058.44;;;19.04;75.64
25238;BME280;13185;50.872;5.306;2022-10-22T13:18:52;101065.59;;;19.06;73.68
25238;BME280;13185;50.872;5.306;2022-10-22T13:23:58;101063.34;;;19.01;73.83
25238;BME280;13185;50.872;5.306;2022-10-22T13:26:30;101070.63;;;19.00;73.80
25238;BME280;13185;50.872;5.306;2022-10-22T13:28:57;101063.75;;;19.06;74.53
25238;BME280;13185;50.872;5.306;2022-10-22T13:31:29;101066.19;;;19.09;73.82
25238;BME280;13185;50.872;5.306;2022-10-22T13:34:17;101068.03;;;19.09;72.97
25238;BME280;13185;50.872;5.306;2022-10-22T13:36:43;101064.47;;;19.08;73.43
25238;BME280;13185;50.872;5.306;2022-10-22T13:39:20;101061.88;;;19.07;72.47
25238;BME280;13185;50.872;5.306;2022-10-22T13:41:46;101063.31;;;19.11;73.20
25238;BME280;13185;50.872;5.306;2022-10-22T13:44:12;101056.56;;;19.15;73.36
25238;BME280;13185;50.872;5.306;2022-10-22T13:46:37;101056.28;;;19.18;73.71
25238;BME280;13185;50.872;5.306;2022-10-22T13:49:13;101058.56;;;19.13;73.58
25238;BME280;13185;50.872;5.306;2022-10-22T13:51:39;101063.75;;;19.06;73.40
25238;BME280;13185;50.872;5.306;2022-10-22T13:54:12;101066.91;;;19.01;73.32
25238;BME280;13185;50.872;5.306;2022-10-22T13:56:39;101058.56;;;19.13;73.99
25238;BME280;13185;50.872;5.306;2022-10-22T13:59:04;101070.69;;;19.28;74.31
25238;BME280;13185;50.872;5.306;2022-10-22T14:01:30;101060.69;;;19.46;74.10
25238;BME280;13185;50.872;5.306;2022-10-22T14:03:57;101058.88;;;19.65;73.41
25238;BME280;13185;50.872;5.306;2022-10-22T14:06:25;101062.66;;;19.54;71.32
25238;BME280;13185;50.872;5.306;2022-10-22T14:09:00;101068.47;;;19.41;70.75
25238;BME280;13185;50.872;5.306;2022-10-22T14:11:27;101068.66;;;19.30;71.39
25238;BME280;13185;50.872;5.306;2022-10-22T14:13:54;101073.97;;;19.22;72.14
25238;BME280;13185;50.872;5.306;2022-10-22T14:16:25;101075.16;;;19.19;71.94